createdAt,value
2018-06-29T00:00:57.172Z,1012.65
2018-06-29T00:02:06.877Z,1012.67
2018-06-29T00:03:16.841Z,1012.69
2018-06-29T00:04:26.555Z,1012.65
2018-06-29T00:05:36.263Z,1012.64
2018-06-29T00:06:45.987Z,1012.56
2018-06-29T00:07:56.091Z,1012.57
2018-06-29T00:09:06.053Z,1012.54
2018-06-29T00:10:15.761Z,1012.53
2018-06-29T00:11:24.947Z,1012.54
2018-06-29T00:12:34.914Z,1012.53
2018-06-29T00:13:44.620Z,1012.55
2018-06-29T00:14:54.745Z,1012.54
2018-06-29T00:16:04.712Z,1012.55
2018-06-29T00:17:14.699Z,1012.55
2018-06-29T00:18:24.666Z,1012.62
2018-06-29T00:19:34.632Z,1012.56
2018-06-29T00:20:44.616Z,1012.58
2018-06-29T00:21:54.363Z,1012.62
2018-06-29T00:23:04.319Z,1012.6
2018-06-29T00:24:14.026Z,1012.66
2018-06-29T00:25:23.997Z,1012.69
2018-06-29T00:26:33.716Z,1012.68
2018-06-29T00:27:43.698Z,1012.63
2018-06-29T00:28:53.667Z,1012.67
2018-06-29T00:30:03.843Z,1012.68
2018-06-29T00:31:13.554Z,1012.65
2018-06-29T00:32:23.005Z,1012.75
2018-06-29T00:33:32.958Z,1012.69
2018-06-29T00:34:42.943Z,1012.72
2018-06-29T00:35:52.921Z,1012.7
2018-06-29T00:37:02.642Z,1012.74
2018-06-29T00:38:12.614Z,1012.73
2018-06-29T00:39:22.314Z,1012.68
2018-06-29T00:40:31.762Z,1012.69
2018-06-29T00:41:41.486Z,1012.71
2018-06-29T00:42:51.191Z,1012.74
2018-06-29T00:44:00.896Z,1012.71
2018-06-29T00:45:10.874Z,1012.73
2018-06-29T00:46:20.833Z,1012.65
2018-06-29T00:47:30.819Z,1012.68
2018-06-29T00:48:40.531Z,1012.67
2018-06-29T00:49:49.995Z,1012.69
2018-06-29T00:50:59.961Z,1012.73
2018-06-29T00:52:09.726Z,1012.72
2018-06-29T00:53:19.724Z,1012.7
2018-06-29T00:54:29.541Z,1012.74
2018-06-29T00:55:39.583Z,1012.73
2018-06-29T00:56:49.573Z,1012.72
2018-06-29T00:57:59.525Z,1012.73
2018-06-29T00:59:09.238Z,1012.75
2018-06-29T01:00:19.219Z,1012.75
2018-06-29T01:01:29.202Z,1012.73
2018-06-29T01:02:39.159Z,1012.72
2018-06-29T01:03:48.858Z,1012.69
2018-06-29T01:04:58.817Z,1012.7
2018-06-29T01:06:08.806Z,1012.69
2018-06-29T01:07:18.770Z,1012.72
2018-06-29T01:08:28.737Z,1012.76
2018-06-29T01:09:38.463Z,1012.74
2018-06-29T01:10:48.426Z,1012.74
2018-06-29T01:11:58.388Z,1012.73
2018-06-29T01:13:08.421Z,1012.66
2018-06-29T01:14:18.398Z,1012.71
2018-06-29T01:15:28.411Z,1012.71
2018-06-29T01:16:38.114Z,1012.7
2018-06-29T01:17:48.068Z,1012.7
2018-06-29T01:18:57.783Z,1012.72
2018-06-29T01:20:07.488Z,1012.69
2018-06-29T01:21:17.457Z,1012.72
2018-06-29T01:22:27.225Z,1012.69
2018-06-29T01:23:37.203Z,1012.66
2018-06-29T01:24:46.914Z,1012.66
2018-06-29T01:25:56.612Z,1012.62
2018-06-29T01:27:06.618Z,1012.6
2018-06-29T01:28:16.592Z,1012.61
2018-06-29T01:29:26.578Z,1012.54
2018-06-29T01:30:36.547Z,1012.57
2018-06-29T01:31:46.520Z,1012.6
2018-06-29T01:32:56.483Z,1012.58
2018-06-29T01:34:06.448Z,1012.6
2018-06-29T01:35:16.404Z,1012.57
2018-06-29T01:36:26.370Z,1012.58
2018-06-29T01:37:36.345Z,1012.6
2018-06-29T01:38:46.316Z,1012.59
2018-06-29T01:39:56.270Z,1012.6
2018-06-29T01:41:06.232Z,1012.61
2018-06-29T01:42:16.266Z,1012.58
2018-06-29T01:43:26.239Z,1012.58
2018-06-29T01:44:36.218Z,1012.58
2018-06-29T01:45:46.234Z,1012.61
2018-06-29T01:46:56.205Z,1012.6
2018-06-29T01:48:06.166Z,1012.59
2018-06-29T01:49:16.143Z,1012.62
2018-06-29T01:50:26.119Z,1012.65
2018-06-29T01:51:35.827Z,1012.63
2018-06-29T01:52:45.538Z,1012.67
2018-06-29T01:53:55.516Z,1012.67
2018-06-29T01:55:05.274Z,1012.66
2018-06-29T01:56:15.250Z,1012.65
2018-06-29T01:57:25.218Z,1012.61
2018-06-29T01:58:35.179Z,1012.6
2018-06-29T01:59:44.895Z,1012.61
2018-06-29T02:00:54.851Z,1012.57
2018-06-29T02:02:04.824Z,1012.57
2018-06-29T02:03:14.789Z,1012.56
2018-06-29T02:04:24.819Z,1012.5
2018-06-29T02:05:34.790Z,1012.49
2018-06-29T02:06:44.763Z,1012.46
2018-06-29T02:07:54.759Z,1012.44
2018-06-29T02:09:05.014Z,1012.48
2018-06-29T02:10:14.987Z,1012.45
2018-06-29T02:11:24.964Z,1012.42
2018-06-29T02:12:34.926Z,1012.44
2018-06-29T02:13:44.908Z,1012.45
2018-06-29T02:14:54.623Z,1012.46
2018-06-29T02:16:04.067Z,1012.47
2018-06-29T02:17:14.052Z,1012.46
2018-06-29T02:18:23.759Z,1012.42
2018-06-29T02:19:33.734Z,1012.46
2018-06-29T02:20:43.449Z,1012.47
2018-06-29T02:21:53.406Z,1012.43
2018-06-29T02:23:03.109Z,1012.41
2018-06-29T02:24:13.078Z,1012.37
2018-06-29T02:25:23.066Z,1012.38
2018-06-29T02:26:33.024Z,1012.39
2018-06-29T02:27:43.036Z,1012.36
2018-06-29T02:28:52.969Z,1012.36
2018-06-29T02:30:02.923Z,1012.32
2018-06-29T02:31:12.888Z,1012.33
2018-06-29T02:32:22.336Z,1012.36
2018-06-29T02:33:31.789Z,1012.34
2018-06-29T02:34:41.756Z,1012.34
2018-06-29T02:35:51.725Z,1012.27
2018-06-29T02:37:01.693Z,1012.28
2018-06-29T02:38:11.661Z,1012.28
2018-06-29T02:39:21.371Z,1012.27
2018-06-29T02:40:31.073Z,1012.28
2018-06-29T02:41:41.063Z,1012.26
2018-06-29T02:42:51.095Z,1012.3
2018-06-29T02:44:01.064Z,1012.29
2018-06-29T02:45:11.034Z,1012.23
2018-06-29T02:46:20.988Z,1012.26
2018-06-29T02:47:30.943Z,1012.27
2018-06-29T02:48:40.641Z,1012.27
2018-06-29T02:49:50.612Z,1012.24
2018-06-29T02:51:00.604Z,1012.29
2018-06-29T02:52:10.617Z,1012.3
2018-06-29T02:53:20.320Z,1012.26
2018-06-29T02:54:30.307Z,1012.22
2018-06-29T02:55:40.021Z,1012.25
2018-06-29T02:56:50.004Z,1012.19
2018-06-29T02:57:59.707Z,1012.22
2018-06-29T02:59:09.784Z,1012.13
2018-06-29T03:00:19.806Z,1012.13
2018-06-29T03:01:29.524Z,1012.1
2018-06-29T03:02:39.530Z,1012.13
2018-06-29T03:03:49.508Z,1012.15
2018-06-29T03:04:59.473Z,1012.12
2018-06-29T03:06:09.211Z,1012.09
2018-06-29T03:07:19.180Z,1012.06
2018-06-29T03:08:28.895Z,1012.06
2018-06-29T03:09:38.877Z,1012.02
2018-06-29T03:10:48.633Z,1012.01
2018-06-29T03:11:58.601Z,1012.03
2018-06-29T03:13:08.579Z,1011.97
2018-06-29T03:14:18.548Z,1011.98
2018-06-29T03:15:28.535Z,1011.96
2018-06-29T03:16:38.509Z,1011.96
2018-06-29T03:17:48.234Z,1011.97
2018-06-29T03:18:58.202Z,1011.99
2018-06-29T03:20:08.172Z,1011.97
2018-06-29T03:21:18.148Z,1011.98
2018-06-29T03:22:28.102Z,1011.94
2018-06-29T03:23:37.795Z,1011.93
2018-06-29T03:24:47.750Z,1011.87
2018-06-29T03:25:57.713Z,1011.92
2018-06-29T03:27:07.441Z,1011.88
2018-06-29T03:28:17.400Z,1011.88
2018-06-29T03:29:27.365Z,1011.82
2018-06-29T03:30:37.346Z,1011.8
2018-06-29T03:31:47.304Z,1011.84
2018-06-29T03:32:57.061Z,1011.82
2018-06-29T03:34:07.010Z,1011.78
2018-06-29T03:35:16.968Z,1011.78
2018-06-29T03:36:26.669Z,1011.75
2018-06-29T03:37:36.378Z,1011.75
2018-06-29T03:38:46.354Z,1011.75
2018-06-29T03:39:56.326Z,1011.75
2018-06-29T03:41:06.306Z,1011.72
2018-06-29T03:42:16.266Z,1011.68
2018-06-29T03:43:26.237Z,1011.72
2018-06-29T03:44:36.214Z,1011.71
2018-06-29T03:45:45.945Z,1011.73
2018-06-29T03:46:55.910Z,1011.74
2018-06-29T03:48:05.885Z,1011.7
2018-06-29T03:49:15.860Z,1011.69
2018-06-29T03:50:26.007Z,1011.67
2018-06-29T03:51:35.962Z,1011.69
2018-06-29T03:52:45.940Z,1011.71
2018-06-29T03:53:55.905Z,1011.75
2018-06-29T03:55:05.612Z,1011.74
2018-06-29T03:56:15.574Z,1011.76
2018-06-29T03:57:25.538Z,1011.73
2018-06-29T03:58:35.501Z,1011.75
2018-06-29T03:59:45.481Z,1011.65
2018-06-29T04:00:55.440Z,1011.68
2018-06-29T04:02:05.422Z,1011.63
2018-06-29T04:03:15.411Z,1011.66
2018-06-29T04:04:25.870Z,1011.64
2018-06-29T04:05:35.846Z,1011.61
2018-06-29T04:06:45.819Z,1011.63
2018-06-29T04:07:55.546Z,1011.63
2018-06-29T04:09:05.518Z,1011.65
2018-06-29T04:10:15.232Z,1011.6
2018-06-29T04:11:25.197Z,1011.58
2018-06-29T04:12:35.170Z,1011.58
2018-06-29T04:13:45.125Z,1011.56
2018-06-29T04:14:55.085Z,1011.53
2018-06-29T04:16:05.047Z,1011.54
2018-06-29T04:17:15.014Z,1011.58
2018-06-29T04:18:24.717Z,1011.55
2018-06-29T04:19:34.682Z,1011.54
2018-06-29T04:20:44.645Z,1011.55
2018-06-29T04:21:54.617Z,1011.6
2018-06-29T04:23:04.584Z,1011.57
2018-06-29T04:24:14.564Z,1011.57
2018-06-29T04:25:24.279Z,1011.56
2018-06-29T04:26:34.279Z,1011.55
2018-06-29T04:27:44.201Z,1011.58
2018-06-29T04:28:53.901Z,1011.56
2018-06-29T04:30:03.882Z,1011.6
2018-06-29T04:31:13.336Z,1011.6
2018-06-29T04:32:23.303Z,1011.6
2018-06-29T04:33:33.264Z,1011.6
2018-06-29T04:34:43.275Z,1011.61
2018-06-29T04:35:52.733Z,1011.63
2018-06-29T04:37:02.702Z,1011.7
2018-06-29T04:38:12.168Z,1011.7
2018-06-29T04:39:21.881Z,1011.68
2018-06-29T04:40:31.865Z,1011.66
2018-06-29T04:41:41.823Z,1011.65
2018-06-29T04:42:51.529Z,1011.61
2018-06-29T04:44:01.603Z,1011.64
2018-06-29T04:45:11.585Z,1011.6
2018-06-29T04:46:21.292Z,1011.6
2018-06-29T04:47:31.270Z,1011.61
2018-06-29T04:48:41.238Z,1011.62
2018-06-29T04:49:51.198Z,1011.62
2018-06-29T04:51:00.905Z,1011.62
2018-06-29T04:52:10.878Z,1011.61
2018-06-29T04:53:20.365Z,1011.58
2018-06-29T04:54:30.623Z,1011.53
2018-06-29T04:55:40.333Z,1011.52
2018-06-29T04:56:50.296Z,1011.53
2018-06-29T04:58:00.269Z,1011.59
2018-06-29T04:59:10.232Z,1011.57
2018-06-29T05:00:20.312Z,1011.54
2018-06-29T05:01:30.301Z,1011.56
2018-06-29T05:02:40.008Z,1011.52
2018-06-29T05:03:49.976Z,1011.57
2018-06-29T05:04:59.954Z,1011.56
2018-06-29T05:06:09.935Z,1011.52
2018-06-29T05:07:19.890Z,1011.54
2018-06-29T05:08:29.850Z,1011.59
2018-06-29T05:09:39.562Z,1011.55
2018-06-29T05:10:49.287Z,1011.54
2018-06-29T05:11:58.998Z,1011.55
2018-06-29T05:13:08.704Z,1011.51
2018-06-29T05:14:18.668Z,1011.55
2018-06-29T05:15:28.179Z,1011.5
2018-06-29T05:16:38.211Z,1011.51
2018-06-29T05:17:48.177Z,1011.44
2018-06-29T05:18:57.891Z,1011.54
2018-06-29T05:20:07.905Z,1011.55
2018-06-29T05:21:17.606Z,1011.58
2018-06-29T05:22:27.573Z,1011.49
2018-06-29T05:23:37.545Z,1011.53
2018-06-29T05:24:47.520Z,1011.49
2018-06-29T05:25:57.500Z,1011.51
2018-06-29T05:27:07.229Z,1011.48
2018-06-29T05:28:17.206Z,1011.53
2018-06-29T05:29:27.169Z,1011.4
2018-06-29T05:30:36.875Z,1011.48
2018-06-29T05:31:46.847Z,1011.47
2018-06-29T05:32:56.815Z,1011.47
2018-06-29T05:34:06.780Z,1011.5
2018-06-29T05:35:16.511Z,1011.45
2018-06-29T05:36:26.499Z,1011.46
2018-06-29T05:37:36.489Z,1011.44
2018-06-29T05:38:46.198Z,1011.43
2018-06-29T05:39:55.912Z,1011.46
2018-06-29T05:41:05.895Z,1011.48
2018-06-29T05:42:15.608Z,1011.52
2018-06-29T05:43:25.594Z,1011.47
2018-06-29T05:44:35.579Z,1011.47
2018-06-29T05:45:45.589Z,1011.53
2018-06-29T05:46:55.325Z,1011.52
2018-06-29T05:48:05.717Z,1011.51
2018-06-29T05:49:15.447Z,1011.52
2018-06-29T05:50:25.392Z,1011.52
2018-06-29T05:51:35.100Z,1011.53
2018-06-29T05:52:45.173Z,1011.53
2018-06-29T05:53:55.141Z,1011.51
2018-06-29T05:55:05.122Z,1011.62
2018-06-29T05:56:15.100Z,1011.61
2018-06-29T05:57:24.891Z,1011.64
2018-06-29T05:58:35.258Z,1011.67
2018-06-29T05:59:44.975Z,1011.67
2018-06-29T06:00:54.693Z,1011.67
2018-06-29T06:02:04.700Z,1011.61
2018-06-29T06:03:14.066Z,1011.67
2018-06-29T06:04:24.049Z,1011.66
2018-06-29T06:05:34.141Z,1011.69
2018-06-29T06:06:43.872Z,1011.65
2018-06-29T06:07:53.867Z,1011.65
2018-06-29T06:09:03.851Z,1011.65
2018-06-29T06:10:13.982Z,1011.62
2018-06-29T06:11:23.749Z,1011.62
2018-06-29T06:12:33.720Z,1011.62
2018-06-29T06:13:43.434Z,1011.67
2018-06-29T06:14:53.443Z,1011.64
2018-06-29T06:16:03.517Z,1011.68
2018-06-29T06:17:14.059Z,1011.65
2018-06-29T06:18:24.046Z,1011.7
2018-06-29T06:19:34.043Z,1011.67
2018-06-29T06:20:43.760Z,1011.71
2018-06-29T06:21:53.552Z,1011.74
2018-06-29T06:23:03.967Z,1011.77
2018-06-29T06:24:13.934Z,1011.74
2018-06-29T06:25:23.642Z,1011.75
2018-06-29T06:26:33.360Z,1011.74
2018-06-29T06:27:43.596Z,1011.68
2018-06-29T06:28:53.588Z,1011.68
2018-06-29T06:30:03.301Z,1011.68
2018-06-29T06:31:13.268Z,1011.7
2018-06-29T06:32:23.248Z,1011.69
2018-06-29T06:33:33.233Z,1011.66
2018-06-29T06:34:43.233Z,1011.68
2018-06-29T06:35:53.223Z,1011.67
2018-06-29T06:37:02.952Z,1011.65
2018-06-29T06:38:12.937Z,1011.63
2018-06-29T06:39:22.907Z,1011.64
2018-06-29T06:40:32.630Z,1011.69
2018-06-29T06:41:42.774Z,1011.68
2018-06-29T06:42:52.865Z,1011.65
2018-06-29T06:44:02.601Z,1011.66
2018-06-29T06:45:12.576Z,1011.62
2018-06-29T06:46:22.305Z,1011.67
2018-06-29T06:47:32.026Z,1011.67
2018-06-29T06:48:42.022Z,1011.63
2018-06-29T06:49:52.024Z,1011.61
2018-06-29T06:51:02.011Z,1011.62
2018-06-29T06:52:11.747Z,1011.65
2018-06-29T06:53:21.761Z,1011.62
2018-06-29T06:54:31.530Z,1011.64
2018-06-29T06:55:41.298Z,1011.63
2018-06-29T06:56:51.332Z,1011.58
2018-06-29T06:58:01.327Z,1011.6
2018-06-29T06:59:11.033Z,1011.61
2018-06-29T07:00:20.808Z,1011.59
2018-06-29T07:01:30.532Z,1011.62
2018-06-29T07:02:40.251Z,1011.59
2018-06-29T07:03:50.229Z,1011.58
2018-06-29T07:04:59.998Z,1011.56
2018-06-29T07:06:09.990Z,1011.59
2018-06-29T07:07:19.977Z,1011.57
2018-06-29T07:08:29.972Z,1011.61
2018-06-29T07:09:39.971Z,1011.62
2018-06-29T07:10:49.954Z,1011.58
2018-06-29T07:11:59.942Z,1011.61
2018-06-29T07:13:09.972Z,1011.56
2018-06-29T07:14:19.966Z,1011.63
2018-06-29T07:15:29.707Z,1011.62
2018-06-29T07:16:39.727Z,1011.64
2018-06-29T07:17:49.453Z,1011.68
2018-06-29T07:18:59.440Z,1011.62
2018-06-29T07:20:09.424Z,1011.63
2018-06-29T07:21:19.175Z,1011.59
2018-06-29T07:22:28.988Z,1011.61
2018-06-29T07:23:38.985Z,1011.62
2018-06-29T07:24:48.995Z,1011.58
2018-06-29T07:25:58.969Z,1011.59
2018-06-29T07:27:08.932Z,1011.56
2018-06-29T07:28:18.652Z,1011.55
2018-06-29T07:29:28.643Z,1011.57
2018-06-29T07:30:38.628Z,1011.6
2018-06-29T07:31:48.371Z,1011.52
2018-06-29T07:32:58.362Z,1011.53
2018-06-29T07:34:08.343Z,1011.51
2018-06-29T07:35:18.085Z,1011.53
2018-06-29T07:36:28.149Z,1011.49
2018-06-29T07:37:37.872Z,1011.53
2018-06-29T07:38:47.608Z,1011.49
2018-06-29T07:39:57.613Z,1011.5
2018-06-29T07:41:07.609Z,1011.47
2018-06-29T07:42:17.644Z,1011.53
2018-06-29T07:43:27.620Z,1011.51
2018-06-29T07:44:37.369Z,1011.51
2018-06-29T07:45:47.094Z,1011.45
2018-06-29T07:46:56.815Z,1011.44
2018-06-29T07:48:06.839Z,1011.45
2018-06-29T07:49:16.568Z,1011.45
2018-06-29T07:50:26.283Z,1011.44
2018-06-29T07:51:36.289Z,1011.42
2018-06-29T07:52:46.315Z,1011.38
2018-06-29T07:53:56.617Z,1011.38
2018-06-29T07:55:06.659Z,1011.38
2018-06-29T07:56:16.380Z,1011.35
2018-06-29T07:57:26.679Z,1011.37
2018-06-29T07:58:36.754Z,1011.32
2018-06-29T07:59:47.479Z,1011.3
2018-06-29T08:00:56.966Z,1011.26
2018-06-29T08:02:06.980Z,1011.24
2018-06-29T08:03:16.989Z,1011.25
2018-06-29T08:04:27.002Z,1011.22
2018-06-29T08:05:36.736Z,1011.22
2018-06-29T08:06:46.497Z,1011.24
2018-06-29T08:07:56.525Z,1011.19
2018-06-29T08:09:06.487Z,1011.2
2018-06-29T08:10:16.223Z,1011.21
2018-06-29T08:11:25.928Z,1011.23
2018-06-29T08:12:35.912Z,1011.22
2018-06-29T08:13:45.913Z,1011.19
2018-06-29T08:14:55.628Z,1011.21
2018-06-29T08:16:05.356Z,1011.2
2018-06-29T08:17:15.069Z,1011.21
2018-06-29T08:18:24.796Z,1011.15
2018-06-29T08:19:34.520Z,1011.15
2018-06-29T08:20:44.237Z,1011.13
2018-06-29T08:21:54.203Z,1011.16
2018-06-29T08:23:03.946Z,1011.11
2018-06-29T08:24:13.439Z,1011.11
2018-06-29T08:25:23.586Z,1011.12
2018-06-29T08:26:33.051Z,1011.11
2018-06-29T08:27:42.800Z,1011.09
2018-06-29T08:28:52.770Z,1011.1
2018-06-29T08:30:02.633Z,1011.08
2018-06-29T08:31:12.359Z,1011.11
2018-06-29T08:32:22.575Z,1011.09
2018-06-29T08:33:32.542Z,1011.12
2018-06-29T08:34:42.016Z,1011.06
2018-06-29T08:35:51.736Z,1011.14
2018-06-29T08:37:01.701Z,1011.13
2018-06-29T08:38:11.663Z,1011.11
2018-06-29T08:39:21.645Z,1011.14
2018-06-29T08:40:31.658Z,1011.09
2018-06-29T08:41:41.629Z,1011.13
2018-06-29T08:42:51.604Z,1011.1
2018-06-29T08:44:01.328Z,1011.1
2018-06-29T08:45:11.457Z,1011.11
2018-06-29T08:46:21.192Z,1011.04
2018-06-29T08:47:30.913Z,1011.09
2018-06-29T08:48:40.910Z,1011.04
2018-06-29T08:49:50.374Z,1011.04
2018-06-29T08:51:00.384Z,1011.02
2018-06-29T08:52:10.415Z,1010.98
2018-06-29T08:53:20.502Z,1010.95
2018-06-29T08:54:30.491Z,1010.92
2018-06-29T08:55:40.214Z,1010.95
2018-06-29T08:56:50.197Z,1010.93
2018-06-29T08:57:59.912Z,1010.89
2018-06-29T08:59:09.639Z,1010.91
2018-06-29T09:00:19.364Z,1010.92
2018-06-29T09:01:29.418Z,1010.89
2018-06-29T09:02:39.162Z,1010.89
2018-06-29T09:03:49.149Z,1010.9
2018-06-29T09:04:59.204Z,1010.88
2018-06-29T09:06:09.415Z,1010.88
2018-06-29T09:07:19.396Z,1010.87
2018-06-29T09:08:29.375Z,1010.89
2018-06-29T09:09:39.417Z,1010.91
2018-06-29T09:10:48.877Z,1010.87
2018-06-29T09:11:58.788Z,1010.92
2018-06-29T09:13:08.775Z,1010.94
2018-06-29T09:14:18.765Z,1010.91
2018-06-29T09:15:28.554Z,1010.85
2018-06-29T09:16:38.544Z,1010.86
2018-06-29T09:17:48.533Z,1010.89
2018-06-29T09:18:58.275Z,1010.86
2018-06-29T09:20:08.501Z,1010.86
2018-06-29T09:21:18.517Z,1010.83
2018-06-29T09:22:28.525Z,1010.77
2018-06-29T09:23:38.291Z,1010.76
2018-06-29T09:24:48.306Z,1010.75
2018-06-29T09:25:57.813Z,1010.76
2018-06-29T09:27:07.823Z,1010.76
2018-06-29T09:28:17.558Z,1010.75
2018-06-29T09:29:27.549Z,1010.73
2018-06-29T09:30:37.567Z,1010.73
2018-06-29T09:31:47.563Z,1010.74
2018-06-29T09:32:57.575Z,1010.69
2018-06-29T09:34:07.596Z,1010.74
2018-06-29T09:35:17.350Z,1010.76
2018-06-29T09:36:27.140Z,1010.73
2018-06-29T09:37:37.191Z,1010.74
2018-06-29T09:38:46.938Z,1010.68
2018-06-29T09:39:56.953Z,1010.68
2018-06-29T09:41:06.684Z,1010.58
2018-06-29T09:42:16.413Z,1010.57
2018-06-29T09:43:26.480Z,1010.45
2018-06-29T09:44:36.487Z,1010.54
2018-06-29T09:45:46.496Z,1010.5
2018-06-29T09:46:56.500Z,1010.48
2018-06-29T09:48:06.844Z,1010.53
2018-06-29T09:49:17.386Z,1010.52
2018-06-29T09:50:27.390Z,1010.46
2018-06-29T09:51:37.386Z,1010.5
2018-06-29T09:52:47.432Z,1010.52
2018-06-29T09:53:57.482Z,1010.47
2018-06-29T09:55:07.997Z,1010.54
2018-06-29T09:56:17.743Z,1010.53
2018-06-29T09:57:27.759Z,1010.52
2018-06-29T09:58:37.271Z,1010.47
2018-06-29T09:59:47.329Z,1010.54
2018-06-29T10:00:57.397Z,1010.4
2018-06-29T10:02:07.349Z,1010.45
2018-06-29T10:03:17.108Z,1010.46
2018-06-29T10:04:27.191Z,1010.46
2018-06-29T10:05:37.199Z,1010.48
2018-06-29T10:06:47.186Z,1010.5
2018-06-29T10:07:57.202Z,1010.46
2018-06-29T10:09:06.960Z,1010.46
2018-06-29T10:10:16.975Z,1010.43
2018-06-29T10:11:26.975Z,1010.45
2018-06-29T10:12:36.962Z,1010.44
2018-06-29T10:13:46.688Z,1010.45
2018-06-29T10:14:56.678Z,1010.35
2018-06-29T10:16:06.669Z,1010.41
2018-06-29T10:17:16.154Z,1010.41
2018-06-29T10:18:26.158Z,1010.41
2018-06-29T10:19:35.929Z,1010.37
2018-06-29T10:20:46.893Z,1010.32
2018-06-29T10:21:56.877Z,1010.28
2018-06-29T10:23:06.988Z,1010.23
2018-06-29T10:24:17.359Z,1010.23
2018-06-29T10:25:27.438Z,1010.24
2018-06-29T10:26:37.939Z,1010.19
2018-06-29T10:27:47.810Z,1010.22
2018-06-29T10:28:57.904Z,1010.25
2018-06-29T10:30:07.928Z,1010.21
2018-06-29T10:31:17.419Z,1010.19
2018-06-29T10:32:27.418Z,1010.19
2018-06-29T10:33:37.425Z,1010.25
2018-06-29T10:34:47.452Z,1010.22
2018-06-29T10:35:57.273Z,1010.24
2018-06-29T10:37:07.215Z,1010.16
2018-06-29T10:38:17.234Z,1010.18
2018-06-29T10:39:27.292Z,1010.15
2018-06-29T10:40:37.076Z,1010.07
2018-06-29T10:41:46.806Z,1010.12
2018-06-29T10:42:56.800Z,1010
2018-06-29T10:44:06.794Z,1010.11
2018-06-29T10:45:16.785Z,1010.16
2018-06-29T10:46:26.798Z,1010.09
2018-06-29T10:47:37.060Z,1010.07
2018-06-29T10:48:46.793Z,1010.02
2018-06-29T10:49:56.781Z,1010.06
2018-06-29T10:51:06.772Z,1010.03
2018-06-29T10:52:16.790Z,1010.03
2018-06-29T10:53:26.561Z,1010.1
2018-06-29T10:54:36.568Z,1010
2018-06-29T10:55:46.336Z,1010.06
2018-06-29T10:56:56.088Z,1010.03
2018-06-29T10:58:06.083Z,1009.95
2018-06-29T10:59:16.076Z,1009.96
2018-06-29T11:00:26.094Z,1009.88
2018-06-29T11:01:36.104Z,1009.82
2018-06-29T11:02:46.099Z,1009.89
2018-06-29T11:03:55.858Z,1009.83
2018-06-29T11:05:05.863Z,1009.8
2018-06-29T11:06:15.861Z,1009.82
2018-06-29T11:07:25.862Z,1009.83
2018-06-29T11:08:35.604Z,1009.78
2018-06-29T11:09:45.597Z,1009.78
2018-06-29T11:10:55.367Z,1009.8
2018-06-29T11:12:05.697Z,1009.77
2018-06-29T11:13:15.446Z,1009.84
2018-06-29T11:14:25.447Z,1009.85
2018-06-29T11:15:35.479Z,1009.78
2018-06-29T11:16:45.215Z,1009.73
2018-06-29T11:17:55.322Z,1009.67
2018-06-29T11:19:05.053Z,1009.64
2018-06-29T11:20:15.058Z,1009.64
2018-06-29T11:21:25.089Z,1009.65
2018-06-29T11:22:34.875Z,1009.58
2018-06-29T11:23:45.263Z,1009.58
2018-06-29T11:24:55.273Z,1009.6
2018-06-29T11:26:05.027Z,1009.59
2018-06-29T11:27:15.021Z,1009.64
2018-06-29T11:28:25.018Z,1009.66
2018-06-29T11:29:35.017Z,1009.66
2018-06-29T11:30:45.056Z,1009.66
2018-06-29T11:31:55.049Z,1009.66
2018-06-29T11:33:05.057Z,1009.65
2018-06-29T11:34:15.064Z,1009.62
2018-06-29T11:35:25.055Z,1009.55
2018-06-29T11:36:34.778Z,1009.53
2018-06-29T11:37:44.947Z,1009.53
2018-06-29T11:38:54.943Z,1009.53
2018-06-29T11:40:04.710Z,1009.57
2018-06-29T11:41:14.706Z,1009.59
2018-06-29T11:42:24.757Z,1009.53
2018-06-29T11:43:35.082Z,1009.45
2018-06-29T11:44:44.831Z,1009.59
2018-06-29T11:45:54.820Z,1009.48
2018-06-29T11:47:04.277Z,1009.58
2018-06-29T11:48:14.261Z,1009.52
2018-06-29T11:49:24.264Z,1009.35
2018-06-29T11:50:34.020Z,1009.5
2018-06-29T11:51:44.039Z,1009.49
2018-06-29T11:52:54.050Z,1009.5
2018-06-29T11:54:04.046Z,1009.52
2018-06-29T11:55:14.045Z,1009.45
2018-06-29T11:56:23.784Z,1009.43
2018-06-29T11:57:33.532Z,1009.45
2018-06-29T11:58:43.550Z,1009.42
2018-06-29T11:59:53.565Z,1009.41
2018-06-29T12:01:03.299Z,1009.45
2018-06-29T12:02:13.296Z,1009.46
2018-06-29T12:03:23.279Z,1009.43
2018-06-29T12:04:32.761Z,1009.47
2018-06-29T12:05:42.745Z,1009.45
2018-06-29T12:06:52.515Z,1009.44
2018-06-29T12:08:02.319Z,1009.53
2018-06-29T12:09:12.435Z,1009.43
2018-06-29T12:10:22.432Z,1009.37
2018-06-29T12:11:32.459Z,1009.52
2018-06-29T12:12:42.448Z,1009.52
2018-06-29T12:13:52.435Z,1009.46
2018-06-29T12:15:02.434Z,1009.46
2018-06-29T12:16:12.430Z,1009.53
2018-06-29T12:17:22.432Z,1009.38
2018-06-29T12:18:32.424Z,1009.36
2018-06-29T12:19:42.416Z,1009.39
2018-06-29T12:20:52.452Z,1009.35
2018-06-29T12:22:02.279Z,1009.29
2018-06-29T12:23:12.355Z,1009.31
2018-06-29T12:24:22.621Z,1009.25
2018-06-29T12:25:32.699Z,1009.27
2018-06-29T12:26:42.875Z,1009.22
2018-06-29T12:27:52.636Z,1009.23
2018-06-29T12:29:03.048Z,1009.27
2018-06-29T12:30:13.052Z,1009.17
2018-06-29T12:31:23.042Z,1009.17
2018-06-29T12:32:33.032Z,1009.17
2018-06-29T12:33:43.219Z,1009.3
2018-06-29T12:34:53.242Z,1009.28
2018-06-29T12:36:03.233Z,1009.17
2018-06-29T12:37:13.223Z,1009.19
2018-06-29T12:38:22.940Z,1009.14
2018-06-29T12:39:32.934Z,1009.14
2018-06-29T12:40:42.908Z,1009.16
2018-06-29T12:41:52.381Z,1009.12
2018-06-29T12:43:02.119Z,1009.18
2018-06-29T12:44:12.124Z,1009.18
2018-06-29T12:45:21.843Z,1009.08
2018-06-29T12:46:31.579Z,1009.09
2018-06-29T12:47:41.329Z,1008.95
2018-06-29T12:48:51.061Z,1009.01
2018-06-29T12:50:01.068Z,1009.04
2018-06-29T12:51:10.797Z,1009.02
2018-06-29T12:52:20.800Z,1008.97
2018-06-29T12:53:30.793Z,1008.96
2018-06-29T12:54:40.534Z,1008.94
2018-06-29T12:55:50.598Z,1008.95
2018-06-29T12:57:00.978Z,1008.97
2018-06-29T12:58:11.021Z,1008.95
2018-06-29T12:59:21.027Z,1008.95
2018-06-29T13:00:31.004Z,1008.96
2018-06-29T13:01:40.763Z,1008.89
2018-06-29T13:02:50.502Z,1008.84
2018-06-29T13:04:00.509Z,1008.83
2018-06-29T13:05:10.540Z,1008.81
2018-06-29T13:06:20.912Z,1008.84
2018-06-29T13:07:30.675Z,1008.93
2018-06-29T13:08:40.678Z,1008.88
2018-06-29T13:09:50.442Z,1008.81
2018-06-29T13:11:00.458Z,1008.83
2018-06-29T13:12:10.196Z,1008.79
2018-06-29T13:13:19.922Z,1008.71
2018-06-29T13:14:29.658Z,1008.8
2018-06-29T13:15:39.396Z,1008.74
2018-06-29T13:16:49.386Z,1008.75
2018-06-29T13:17:59.373Z,1008.77
2018-06-29T13:19:09.360Z,1008.71
2018-06-29T13:20:19.343Z,1008.69
2018-06-29T13:21:29.342Z,1008.62
2018-06-29T13:22:39.351Z,1008.69
2018-06-29T13:23:49.078Z,1008.62
2018-06-29T13:24:59.183Z,1008.54
2018-06-29T13:26:09.816Z,1008.58
2018-06-29T13:27:19.831Z,1008.55
2018-06-29T13:28:29.886Z,1008.6
2018-06-29T13:29:40.079Z,1008.59
2018-06-29T13:30:50.144Z,1008.54
2018-06-29T13:32:00.414Z,1008.52
2018-06-29T13:33:10.397Z,1008.46
2018-06-29T13:34:20.393Z,1008.5
2018-06-29T13:35:30.412Z,1008.51
2018-06-29T13:36:40.384Z,1008.46
2018-06-29T13:37:50.115Z,1008.5
2018-06-29T13:38:59.859Z,1008.49
2018-06-29T13:40:09.617Z,1008.54
2018-06-29T13:41:19.618Z,1008.42
2018-06-29T13:42:29.623Z,1008.44
2018-06-29T13:43:39.619Z,1008.4
2018-06-29T13:44:49.385Z,1008.3
2018-06-29T13:45:59.132Z,1008.59
2018-06-29T13:47:09.134Z,1008.51
2018-06-29T13:48:18.856Z,1008.41
2018-06-29T13:49:28.598Z,1008.38
2018-06-29T13:50:38.590Z,1008.39
2018-06-29T13:51:48.598Z,1008.35
2018-06-29T13:52:58.573Z,1008.35
2018-06-29T13:54:08.063Z,1008.33
2018-06-29T13:55:18.050Z,1008.31
2018-06-29T13:56:28.057Z,1008.37
2018-06-29T13:57:37.793Z,1008.38
2018-06-29T13:58:47.802Z,1008.32
2018-06-29T13:59:57.806Z,1008.2
2018-06-29T14:01:07.543Z,1008.17
2018-06-29T14:02:17.550Z,1008.19
2018-06-29T14:03:27.411Z,1008.12
2018-06-29T14:04:37.399Z,1008.14
2018-06-29T14:05:47.139Z,1008.11
2018-06-29T14:06:56.865Z,1008.15
2018-06-29T14:08:06.609Z,1008.13